Somerset, Massachusetts
Current Conditions -  °F | °C
As of 11:08 AM on Friday 24 Oct 2014 (Local Time) from KEWB Reporting Station
Overcast Overcast  
Wind Chill: 11°   Ceiling: 1400
Heat Index: 11°   Visibility: 10mi
Dew Point:   Wind: 8mph
Humidity: 86%   Direction: 330°NNW
Pressure: 29.69"   Gusts: NA
Location:  41.75°N, 71.14°W
Report Text: KEWB 241508Z 33007KT 10SM OVC014 11/09 A2969 RMK AO2 T01110089
Loading
Personal Weather Stations






























Interactive Weather Map
Tropical Storm Tracking
New forecast layout! Learn more

10-Day Weather Forecast

Advertisements
Track Severe Weather on mobile